createdAt,value
2023-01-12T00:01:42.294Z,-0.16
2023-01-12T00:04:45.396Z,-0.15
2023-01-12T00:07:48.254Z,-0.17
2023-01-12T00:10:56.321Z,-0.29
2023-01-12T00:13:59.369Z,-0.33
2023-01-12T00:17:02.634Z,-0.31
2023-01-12T00:20:06.727Z,-0.31
2023-01-12T00:23:12.501Z,-0.33
2023-01-12T00:26:15.304Z,-0.31
2023-01-12T00:29:18.813Z,-0.32
2023-01-12T00:32:22.518Z,-0.23
2023-01-12T00:35:25.209Z,-0.23
2023-01-12T00:38:28.360Z,-0.29
2023-01-12T00:42:03.616Z,-0.26
2023-01-12T00:45:23.869Z,-0.15
2023-01-12T00:48:26.992Z,-0.04
2023-01-12T00:51:29.916Z,0.11
2023-01-12T00:54:33.812Z,0.10
2023-01-12T00:57:36.699Z,0.11
2023-01-12T01:00:39.979Z,0.08
2023-01-12T01:03:42.950Z,0.08
2023-01-12T01:06:46.146Z,0.15
2023-01-12T01:09:49.833Z,0.21
2023-01-12T01:12:53.052Z,0.31
2023-01-12T01:15:55.970Z,0.41
2023-01-12T01:18:59.793Z,0.56
2023-01-12T01:22:02.846Z,0.61
2023-01-12T01:25:06.171Z,0.78
2023-01-12T01:28:08.959Z,0.82
2023-01-12T01:31:23.230Z,1.03
2023-01-12T01:34:26.305Z,1.08
2023-01-12T01:37:29.078Z,1.14
2023-01-12T01:40:33.472Z,1.19
2023-01-12T01:43:59.715Z,1.30
2023-01-12T01:47:15.012Z,1.36
2023-01-12T01:50:20.157Z,1.49
2023-01-12T01:53:25.767Z,1.50
2023-01-12T01:56:31.789Z,1.44
2023-01-12T01:59:38.506Z,1.38
2023-01-12T02:02:43.547Z,1.40
2023-01-12T02:05:49.187Z,1.48
2023-01-12T02:09:27.986Z,1.58
2023-01-12T02:12:49.522Z,1.57
2023-01-12T02:16:18.966Z,1.58
2023-01-12T02:19:33.799Z,1.71
2023-01-12T02:22:53.636Z,1.77
2023-01-12T02:26:38.137Z,1.70
2023-01-12T02:29:55.742Z,1.84
2023-01-12T02:33:19.986Z,1.92
2023-01-12T02:36:37.816Z,1.93
2023-01-12T02:40:06.697Z,2.00
2023-01-12T02:43:16.886Z,1.99
2023-01-12T02:46:32.388Z,1.96
2023-01-12T02:49:42.448Z,2.07
2023-01-12T02:52:51.483Z,2.07
2023-01-12T02:55:54.725Z,2.14
2023-01-12T02:59:03.513Z,2.20
2023-01-12T03:02:19.012Z,2.28
2023-01-12T03:05:21.941Z,2.37
2023-01-12T03:08:29.075Z,2.43
2023-01-12T03:11:32.006Z,2.34
2023-01-12T03:14:39.463Z,2.37
2023-01-12T03:17:44.738Z,2.34
2023-01-12T03:20:55.999Z,2.38
2023-01-12T03:24:22.589Z,2.42
2023-01-12T03:27:32.484Z,2.21
2023-01-12T03:30:39.262Z,2.26
2023-01-12T03:33:44.290Z,2.34
2023-01-12T03:37:14.556Z,2.53
2023-01-12T03:40:36.535Z,2.53
2023-01-12T03:43:50.447Z,2.50
2023-01-12T03:47:04.342Z,2.51
2023-01-12T03:50:16.874Z,2.61
2023-01-12T03:53:23.443Z,2.76
2023-01-12T03:56:31.346Z,2.50
2023-01-12T03:59:34.212Z,2.32
2023-01-12T04:02:37.099Z,2.32
2023-01-12T04:05:44.260Z,2.30
2023-01-12T04:08:47.206Z,2.36
2023-01-12T04:12:09.084Z,2.37
2023-01-12T04:15:12.006Z,2.30
2023-01-12T04:18:16.031Z,2.25
2023-01-12T04:21:39.516Z,2.12
2023-01-12T04:24:42.581Z,2.18
2023-01-12T04:27:49.595Z,2.07
2023-01-12T04:30:53.461Z,2.15
2023-01-12T04:33:56.323Z,2.17
2023-01-12T04:37:02.033Z,2.20
2023-01-12T04:40:06.149Z,2.27
2023-01-12T04:43:10.258Z,2.37
2023-01-12T04:46:13.210Z,2.19
2023-01-12T04:49:16.849Z,2.11
2023-01-12T04:52:19.626Z,2.09
2023-01-12T04:55:22.384Z,2.12
2023-01-12T04:58:25.138Z,2.27
2023-01-12T05:01:31.108Z,2.21
2023-01-12T05:04:34.085Z,2.30
2023-01-12T05:07:36.970Z,2.26
2023-01-12T05:10:39.993Z,2.05
2023-01-12T05:13:42.932Z,2.06
2023-01-12T05:16:45.852Z,2.17
2023-01-12T05:19:49.830Z,2.10
2023-01-12T05:22:52.931Z,2.08
2023-01-12T05:26:01.757Z,2.02
2023-01-12T05:29:04.673Z,2.06
2023-01-12T05:32:07.717Z,1.91
2023-01-12T05:35:10.557Z,1.88
2023-01-12T05:38:13.303Z,1.89
2023-01-12T05:41:16.114Z,1.95
2023-01-12T05:44:18.804Z,2.01
2023-01-12T05:47:21.526Z,2.12
2023-01-12T05:50:24.360Z,2.19
2023-01-12T05:53:43.771Z,2.31
2023-01-12T05:56:49.730Z,2.29
2023-01-12T05:59:52.546Z,2.27
2023-01-12T06:02:55.659Z,2.21
2023-01-12T06:05:58.722Z,2.38
2023-01-12T06:09:02.519Z,2.48
2023-01-12T06:12:24.246Z,2.47
2023-01-12T06:15:27.035Z,2.63
2023-01-12T06:18:29.853Z,2.64
2023-01-12T06:21:33.757Z,2.69
2023-01-12T06:24:36.589Z,2.70
2023-01-12T06:27:40.061Z,2.72
2023-01-12T06:30:42.903Z,2.78
2023-01-12T06:33:46.092Z,2.85
2023-01-12T06:36:49.715Z,2.75
2023-01-12T06:39:52.514Z,2.93
2023-01-12T06:42:55.308Z,2.88
2023-01-12T06:45:58.907Z,2.87
2023-01-12T06:49:01.786Z,2.88
2023-01-12T06:52:04.924Z,3.02
2023-01-12T06:55:08.880Z,3.07
2023-01-12T06:58:11.672Z,3.09
2023-01-12T07:01:21.265Z,3.13
2023-01-12T07:04:26.232Z,3.24
2023-01-12T07:07:29.721Z,3.20
2023-01-12T07:10:33.424Z,3.25
2023-01-12T07:13:37.290Z,3.17
2023-01-12T07:16:40.607Z,3.39
2023-01-12T07:19:44.138Z,3.30
2023-01-12T07:22:47.007Z,3.56
2023-01-12T07:25:50.344Z,3.65
2023-01-12T07:28:53.217Z,3.61
2023-01-12T07:31:57.480Z,3.69
2023-01-12T07:35:00.863Z,3.75
2023-01-12T07:38:04.320Z,3.92
2023-01-12T07:41:27.562Z,4.06
2023-01-12T07:44:35.105Z,4.02
2023-01-12T07:47:38.323Z,4.14
2023-01-12T07:50:41.257Z,4.33
2023-01-12T07:53:44.219Z,4.44
2023-01-12T07:56:47.301Z,4.46
2023-01-12T07:59:50.264Z,4.39
2023-01-12T08:02:54.528Z,4.61
2023-01-12T08:05:58.316Z,4.67
2023-01-12T08:09:01.165Z,4.62
2023-01-12T08:12:04.597Z,4.77
2023-01-12T08:15:08.976Z,4.87
2023-01-12T08:18:25.661Z,5.05
2023-01-12T08:21:40.163Z,5.05
2023-01-12T08:24:53.597Z,5.19
2023-01-12T08:28:01.110Z,4.91
2023-01-12T08:31:06.004Z,4.79
2023-01-12T08:34:10.179Z,4.79
2023-01-12T08:37:16.552Z,4.74
2023-01-12T08:40:19.722Z,4.77
2023-01-12T08:43:41.055Z,4.89
2023-01-12T08:46:52.449Z,4.98
2023-01-12T08:49:55.634Z,5.02
2023-01-12T08:52:58.451Z,5.06
2023-01-12T08:56:03.471Z,4.94
2023-01-12T08:59:06.894Z,4.97
2023-01-12T09:02:13.058Z,4.97
2023-01-12T09:05:16.850Z,4.90
2023-01-12T09:08:22.154Z,5.02
2023-01-12T09:11:29.080Z,5.06
2023-01-12T09:14:46.297Z,4.78
2023-01-12T09:17:57.611Z,4.66
2023-01-12T09:21:04.893Z,4.60
2023-01-12T09:24:08.776Z,4.52
2023-01-12T09:27:11.895Z,4.48
2023-01-12T09:30:15.010Z,4.52
2023-01-12T09:33:18.045Z,4.51
2023-01-12T09:36:23.877Z,4.29
2023-01-12T09:39:28.992Z,4.22
2023-01-12T09:42:50.360Z,4.12
2023-01-12T09:46:12.184Z,3.95
2023-01-12T09:49:18.463Z,4.02
2023-01-12T09:52:30.200Z,3.96
2023-01-12T09:56:03.823Z,4.12
2023-01-12T09:59:20.796Z,4.16
2023-01-12T10:02:27.072Z,4.28
2023-01-12T10:05:52.423Z,4.36
2023-01-12T10:09:02.128Z,4.40
2023-01-12T10:12:28.549Z,4.32
2023-01-12T10:15:53.750Z,4.49
2023-01-12T10:19:01.370Z,4.40
2023-01-12T10:22:37.641Z,4.45
2023-01-12T10:25:50.258Z,4.44
2023-01-12T10:28:56.441Z,4.58
2023-01-12T10:31:59.439Z,4.64
2023-01-12T10:35:02.320Z,4.76
2023-01-12T10:38:19.992Z,4.91
2023-01-12T10:41:26.665Z,5.05
2023-01-12T10:44:29.537Z,5.03
2023-01-12T10:47:33.857Z,4.97
2023-01-12T10:50:37.863Z,5.10
2023-01-12T10:53:46.595Z,5.17
2023-01-12T10:57:03.277Z,5.27
2023-01-12T11:00:08.127Z,5.23
2023-01-12T11:03:37.668Z,5.41
2023-01-12T11:06:44.741Z,5.20
2023-01-12T11:09:47.902Z,5.11
2023-01-12T11:12:59.654Z,5.21
2023-01-12T11:16:19.308Z,5.12
2023-01-12T11:19:40.305Z,5.23
2023-01-12T11:22:45.408Z,5.47
2023-01-12T11:25:51.768Z,5.60
2023-01-12T11:28:59.994Z,5.62
2023-01-12T11:32:34.121Z,5.78
2023-01-12T11:36:03.407Z,5.90
2023-01-12T11:39:13.300Z,6.36
2023-01-12T11:42:43.223Z,6.57
2023-01-12T11:46:08.448Z,6.94
2023-01-12T11:49:40.279Z,7.04
2023-01-12T11:52:45.619Z,9.47
2023-01-12T11:56:03.546Z,12.74
2023-01-12T11:59:24.038Z,13.82
2023-01-12T12:02:37.694Z,14.89
2023-01-12T12:05:43.872Z,14.44
2023-01-12T12:09:25.892Z,13.57
2023-01-12T12:12:28.785Z,13.22
2023-01-12T12:15:51.171Z,13.88
2023-01-12T12:19:05.698Z,14.89
2023-01-12T12:22:26.869Z,14.57
2023-01-12T12:25:48.561Z,14.13
2023-01-12T12:29:19.435Z,13.83
2023-01-12T12:32:25.439Z,15.12
2023-01-12T12:35:54.456Z,15.14
2023-01-12T12:39:06.286Z,15.30
2023-01-12T12:42:49.090Z,16.36
2023-01-12T12:46:07.672Z,16.13
2023-01-12T12:49:19.222Z,15.80
2023-01-12T12:52:24.637Z,15.96
2023-01-12T12:55:28.104Z,16.07
2023-01-12T12:59:01.928Z,15.89
2023-01-12T13:02:38.860Z,14.78
2023-01-12T13:05:51.177Z,14.22
2023-01-12T13:08:59.608Z,13.67
2023-01-12T13:12:02.645Z,13.48
2023-01-12T13:15:11.311Z,13.06
2023-01-12T13:18:49.677Z,13.14
2023-01-12T13:21:58.173Z,13.15
2023-01-12T13:25:10.274Z,12.50
2023-01-12T13:28:19.772Z,12.34
2023-01-12T13:31:32.741Z,11.91
2023-01-12T13:34:39.002Z,11.74
2023-01-12T13:37:52.166Z,11.30
2023-01-12T13:41:13.758Z,11.12
2023-01-12T13:44:30.073Z,10.98
2023-01-12T13:47:34.226Z,10.68
2023-01-12T13:50:37.771Z,10.57
2023-01-12T13:53:41.005Z,10.48
2023-01-12T13:56:53.711Z,10.10
2023-01-12T14:00:04.982Z,9.89
2023-01-12T14:03:30.819Z,9.66
2023-01-12T14:06:40.646Z,9.87
2023-01-12T14:09:55.771Z,9.75
2023-01-12T14:13:26.488Z,9.61
2023-01-12T14:17:05.587Z,9.75
2023-01-12T14:20:18.414Z,9.41
2023-01-12T14:23:26.997Z,9.46
2023-01-12T14:26:34.875Z,9.11
2023-01-12T14:29:38.074Z,9.00
2023-01-12T14:32:44.107Z,8.73
2023-01-12T14:37:02.562Z,8.69
2023-01-12T14:40:55.370Z,8.69
2023-01-12T14:44:17.597Z,8.65
2023-01-12T14:47:29.850Z,8.41
2023-01-12T14:50:33.019Z,8.26
2023-01-12T14:53:42.810Z,8.17
2023-01-12T14:57:37.219Z,7.83
2023-01-12T15:00:43.657Z,7.61
2023-01-12T15:03:48.601Z,7.33
2023-01-12T15:07:04.634Z,7.06
2023-01-12T15:10:10.575Z,6.81
2023-01-12T15:13:26.005Z,6.61
2023-01-12T15:16:47.486Z,6.49
2023-01-12T15:20:08.854Z,6.26
2023-01-12T15:23:32.341Z,6.05
2023-01-12T15:26:35.108Z,5.89
2023-01-12T15:29:38.059Z,5.82
2023-01-12T15:32:47.618Z,5.66
2023-01-12T15:35:51.028Z,5.47
2023-01-12T15:38:54.152Z,5.31
2023-01-12T15:42:15.435Z,5.16
2023-01-12T15:45:28.827Z,5.02
2023-01-12T15:48:31.778Z,5.06
2023-01-12T15:51:35.495Z,4.95
2023-01-12T15:54:38.214Z,4.77
2023-01-12T15:57:42.189Z,4.60
2023-01-12T16:00:45.755Z,4.52
2023-01-12T16:04:15.075Z,4.42
2023-01-12T16:07:11.783Z,4.37
2023-01-12T16:10:16.559Z,4.30
2023-01-12T16:13:19.365Z,4.25
2023-01-12T16:16:22.305Z,4.08
2023-01-12T16:19:25.387Z,4.01
2023-01-12T16:22:28.506Z,3.93
2023-01-12T16:25:31.584Z,3.88
2023-01-12T16:28:34.695Z,3.84
2023-01-12T16:31:39.364Z,3.78
2023-01-12T16:34:42.376Z,3.72
2023-01-12T16:37:45.194Z,3.65
2023-01-12T16:40:49.320Z,3.52
2023-01-12T16:43:52.409Z,3.36
2023-01-12T16:46:55.261Z,3.31
2023-01-12T16:49:58.720Z,3.26
2023-01-12T16:53:01.757Z,3.08
2023-01-12T16:56:04.816Z,2.94
2023-01-12T16:59:08.136Z,3.01
2023-01-12T17:02:14.983Z,2.92
2023-01-12T17:05:18.090Z,2.86
2023-01-12T17:08:21.099Z,2.80
2023-01-12T17:11:24.495Z,2.77
2023-01-12T17:14:28.599Z,2.74
2023-01-12T17:17:31.648Z,2.71
2023-01-12T17:20:36.358Z,2.74
2023-01-12T17:23:41.175Z,2.83
2023-01-12T17:26:45.424Z,2.80
2023-01-12T17:29:49.093Z,2.80
2023-01-12T17:32:52.036Z,2.63
2023-01-12T17:35:54.802Z,2.39
2023-01-12T17:38:57.984Z,2.24
2023-01-12T17:42:20.040Z,2.19
2023-01-12T17:45:23.049Z,2.01
2023-01-12T17:48:25.969Z,2.05
2023-01-12T17:51:29.426Z,2.09
2023-01-12T17:54:35.221Z,2.14
2023-01-12T17:57:38.485Z,2.21
2023-01-12T18:00:41.594Z,2.24
2023-01-12T18:03:44.782Z,1.95
2023-01-12T18:06:48.035Z,2.00
2023-01-12T18:09:51.084Z,1.86
2023-01-12T18:12:54.055Z,1.75
2023-01-12T18:15:57.368Z,1.70
2023-01-12T18:19:04.724Z,1.58
2023-01-12T18:22:07.741Z,1.48
2023-01-12T18:25:10.725Z,1.41
2023-01-12T18:28:14.471Z,1.35
2023-01-12T18:31:21.447Z,1.39
2023-01-12T18:34:24.855Z,1.49
2023-01-12T18:37:27.982Z,1.51
2023-01-12T18:40:32.870Z,1.50
2023-01-12T18:43:35.805Z,1.35
2023-01-12T18:47:05.596Z,1.29
2023-01-12T18:50:47.658Z,1.19
2023-01-12T18:53:50.756Z,1.20
2023-01-12T18:56:53.856Z,1.03
2023-01-12T19:00:00.668Z,1.01
2023-01-12T19:03:05.784Z,1.10
2023-01-12T19:06:16.754Z,0.97
2023-01-12T19:09:35.244Z,0.82
2023-01-12T19:12:38.153Z,0.76
2023-01-12T19:16:00.078Z,0.79
2023-01-12T19:19:03.188Z,0.63
2023-01-12T19:22:24.792Z,0.66
2023-01-12T19:25:47.094Z,0.62
2023-01-12T19:28:50.151Z,0.62
2023-01-12T19:31:53.316Z,0.60
2023-01-12T19:35:02.388Z,0.61
2023-01-12T19:38:14.768Z,0.54
2023-01-12T19:41:36.198Z,0.67
2023-01-12T19:44:39.606Z,0.91
2023-01-12T19:47:42.923Z,0.74
2023-01-12T19:50:47.310Z,0.61
2023-01-12T19:53:50.408Z,0.72
2023-01-12T19:56:53.424Z,0.59
2023-01-12T19:59:56.430Z,0.48
2023-01-12T20:02:59.526Z,0.30
2023-01-12T20:06:07.764Z,0.17
2023-01-12T20:09:12.419Z,0.20
2023-01-12T20:12:16.432Z,0.15
2023-01-12T20:15:20.956Z,0.10
2023-01-12T20:18:24.722Z,0.09
2023-01-12T20:21:28.014Z,0.27
2023-01-12T20:24:31.488Z,0.27
2023-01-12T20:27:36.408Z,0.26
2023-01-12T20:30:43.094Z,0.37
2023-01-12T20:33:53.758Z,0.48
2023-01-12T20:36:58.264Z,0.24
2023-01-12T20:40:03.547Z,0.27
2023-01-12T20:43:08.494Z,0.19
2023-01-12T20:46:14.304Z,0.08
2023-01-12T20:49:18.106Z,0.01
2023-01-12T20:52:25.391Z,-0.09
2023-01-12T20:55:30.138Z,-0.21
2023-01-12T20:58:39.607Z,-0.36
2023-01-12T21:01:44.954Z,-0.46
2023-01-12T21:04:55.821Z,-0.46
2023-01-12T21:08:07.469Z,-0.39
2023-01-12T21:11:17.811Z,-0.26
2023-01-12T21:14:23.160Z,-0.29
2023-01-12T21:17:26.263Z,-0.24
2023-01-12T21:20:29.429Z,-0.23
2023-01-12T21:23:32.628Z,-0.24
2023-01-12T21:26:35.661Z,-0.23
2023-01-12T21:29:39.021Z,-0.12
2023-01-12T21:32:43.664Z,-0.01
2023-01-12T21:35:55.421Z,-0.15
2023-01-12T21:38:59.415Z,-0.31
2023-01-12T21:42:20.908Z,-0.30
2023-01-12T21:45:25.597Z,-0.21
2023-01-12T21:48:28.673Z,-0.29
2023-01-12T21:51:31.580Z,-0.14
2023-01-12T21:54:34.871Z,-0.14
2023-01-12T21:57:37.931Z,-0.15
2023-01-12T22:00:40.849Z,-0.12
2023-01-12T22:03:43.838Z,-0.05
2023-01-12T22:06:46.781Z,-0.21
2023-01-12T22:09:49.737Z,-0.29
2023-01-12T22:12:55.442Z,-0.29
2023-01-12T22:16:02.926Z,-0.28
2023-01-12T22:19:05.807Z,-0.32
2023-01-12T22:22:08.943Z,-0.29
2023-01-12T22:25:14.093Z,-0.27
2023-01-12T22:28:17.054Z,-0.50
2023-01-12T22:31:22.673Z,-0.54
2023-01-12T22:34:26.110Z,-0.62
2023-01-12T22:37:29.199Z,-0.61
2023-01-12T22:40:33.093Z,-0.65
2023-01-12T22:43:43.048Z,-0.68
2023-01-12T22:46:45.978Z,-0.68
2023-01-12T22:49:48.852Z,-0.80
2023-01-12T22:52:55.724Z,-0.87
2023-01-12T22:56:03.979Z,-0.90
2023-01-12T22:59:09.968Z,-0.79
2023-01-12T23:02:31.975Z,-0.77
2023-01-12T23:05:37.582Z,-0.74
2023-01-12T23:08:41.664Z,-0.85
2023-01-12T23:11:45.004Z,-0.92
2023-01-12T23:14:47.962Z,-1.01
2023-01-12T23:17:50.795Z,-1.09
2023-01-12T23:20:54.427Z,-0.89
2023-01-12T23:23:59.275Z,-0.91
2023-01-12T23:27:04.659Z,-0.81
2023-01-12T23:30:08.478Z,-0.83
2023-01-12T23:33:11.408Z,-0.86
2023-01-12T23:36:17.249Z,-0.90
2023-01-12T23:39:20.104Z,-1.03
2023-01-12T23:42:22.932Z,-1.02
2023-01-12T23:45:25.734Z,-0.99
2023-01-12T23:48:29.763Z,-1.08
2023-01-12T23:51:33.324Z,-1.25
2023-01-12T23:54:38.769Z,-1.36
2023-01-12T23:57:41.572Z,-1.39
